LUKK/KIV METAR and TAF weather

Enter ICAO airport designator
Station Type Date Time Source
LUKK METAR 2020/01/21 15:30 UTC NOAA

LUKK 211530Z 31010KT CAVOK 04/M04 Q1031 R26/CLRD// NOSIG


Station Type Date Time Source
LUKK Decoded METAR 2020/01/21 15:30 UTC NOAA

Chisinau International Airport, Moldova (LUKK) 46-55-40N 028-55-51E
Jan 21, 2020 - 10:30 AM EST / 2020.01.21 1530 UTC
Wind: from the NW (310 degrees) at 12 MPH (10 KT):0
Visibility: greater than 7 mile(s):0
Temperature: 39 F (4 C)
Dew Point: 24 F (-4 C)
Relative Humidity: 55%
Pressure (altimeter): 30.45 in. Hg (1031 hPa)
ob: LUKK 211530Z 31010KT CAVOK 04/M04 Q1031 R26/CLRD// NOSIG
cycle: 15

Station Type Date Time Source
LUKK TAF 2020/01/21 12:25 UTC NOAA

TAF LUKK 211122Z 2112/2212 30012KT CAVOK

Example: see airport list